Time;durP1;ratioP1;P1;durP2;ratioP2;P2;SDS_P1;SDS_P2;PMS_P1;PMS_P2;Temp;Humidity;BMP_temperature;BMP_pressure;BME280_temperature;BME280_humidity;BME280_pressure;Samples;Min_cycle;Max_cycle;Signal;HPM_P1;HPM_P2
2024/02/28 00:01:24;;;;;;;;;;;333.40;2329.60;;;;;;4925033;29;20637;-73
2024/02/28 00:03:50;;;;;;;;;;;333.40;2329.60;;;;;;4921791;29;19918;-73
2024/02/28 00:06:19;;;;;;;;;;;333.40;2329.60;;;;;;4925542;29;20367;-73
2024/02/28 00:08:44;;;;;;;;;;;333.40;2329.60;;;;;;4923753;29;20276;-76
2024/02/28 00:11:10;;;;;;;;;;;333.40;2329.60;;;;;;4922346;29;19915;-73
2024/02/28 00:13:36;;;;;;;;;;;333.40;2329.60;;;;;;4926136;29;20471;-76
2024/02/28 00:16:02;;;;;;;;;;;333.40;2329.60;;;;;;4923032;29;19910;-73
2024/02/28 00:18:27;;;;;;;;;;;333.40;2329.60;;;;;;4927900;29;19911;-75
2024/02/28 00:20:54;;;;;;;;;;;333.40;2329.60;;;;;;4923766;29;19937;-73
2024/02/28 00:23:19;;;;;;;;;;;333.40;2329.60;;;;;;4925507;29;19923;-74
2024/02/28 00:25:45;;;;;;;;;;;333.40;2329.60;;;;;;4926156;29;19921;-73
2024/02/28 00:28:11;;;;;;;;;;;333.40;2329.60;;;;;;4931470;29;19910;-73
2024/02/28 00:30:37;;;;;;;;;;;333.40;2329.60;;;;;;4925737;29;19911;-76
2024/02/28 00:33:02;;;;;;;;;;;333.40;2329.60;;;;;;4932893;29;20354;-73
2024/02/28 00:35:35;;;;;;;;;;;333.40;2329.60;;;;;;4932346;29;19918;-73
2024/02/28 00:38:01;;;;;;;;;;;333.40;2329.60;;;;;;4933829;29;19910;-80
2024/02/28 00:40:27;;;;;;;;;;;333.40;2329.60;;;;;;4930556;29;19917;-73
2024/02/28 00:42:53;;;;;;;;;;;333.40;2329.60;;;;;;4931281;29;20378;-74
2024/02/28 00:45:18;;;;;;;;;;;333.40;2329.60;;;;;;4926977;29;19950;-73
2024/02/28 00:47:44;;;;;;;;;;;333.40;2329.60;;;;;;4925604;29;20002;-73
2024/02/28 00:50:11;;;;;;;;;;;333.40;2329.60;;;;;;4922654;29;19976;-73
2024/02/28 00:52:37;;;;;;;;;;;333.40;2329.60;;;;;;4929445;29;19919;-75
2024/02/28 00:55:04;;;;;;;;;;;333.40;2329.60;;;;;;4930256;29;19958;-73
2024/02/28 00:57:30;;;;;;;;;;;333.40;2329.60;;;;;;4938478;29;19911;-73
2024/02/28 00:59:56;;;;;;;;;;;333.40;2329.60;;;;;;4929570;29;19912;-73
2024/02/28 01:02:21;;;;;;;;;;;333.40;2329.60;;;;;;4939076;29;19923;-77
2024/02/28 01:04:47;;;;;;;;;;;333.40;2329.60;;;;;;4939660;29;20351;-75
2024/02/28 01:07:13;;;;;;;;;;;333.40;2329.60;;;;;;4939648;29;19915;-73
2024/02/28 01:09:38;;;;;;;;;;;333.40;2329.60;;;;;;4939383;29;19911;-79
2024/02/28 01:12:04;;;;;;;;;;;333.40;2329.60;;;;;;4939508;29;20267;-80
2024/02/28 01:14:30;;;;;;;;;;;333.40;2329.60;;;;;;4939375;29;19918;-73
2024/02/28 01:16:55;;;;;;;;;;;333.40;2329.60;;;;;;4939265;29;19922;-73
2024/02/28 01:19:21;;;;;;;;;;;333.40;2329.60;;;;;;4939616;29;19914;-73
2024/02/28 01:21:46;;;;;;;;;;;333.40;2329.60;;;;;;4938934;29;20018;-80
2024/02/28 01:24:12;;;;;;;;;;;333.40;2329.60;;;;;;4939253;29;20010;-75
2024/02/28 01:26:37;;;;;;;;;;;333.40;2329.60;;;;;;4939124;29;19911;-74
2024/02/28 01:29:03;;;;;;;;;;;333.40;2329.60;;;;;;4939094;29;20355;-74
2024/02/28 01:31:29;;;;;;;;;;;333.40;2329.60;;;;;;4938607;29;19966;-73
2024/02/28 01:33:55;;;;;;;;;;;333.40;2329.60;;;;;;4939410;29;19910;-74
2024/02/28 01:36:21;;;;;;;;;;;333.30;2329.60;;;;;;4944244;29;20006;-75
2024/02/28 01:38:46;;;;;;;;;;;333.30;2329.60;;;;;;4945267;29;19946;-74
2024/02/28 01:41:12;;;;;;;;;;;333.30;2329.60;;;;;;4926480;29;19911;-75
2024/02/28 01:43:38;;;;;;;;;;;333.30;2329.60;;;;;;4938744;29;19914;-74
2024/02/28 01:46:06;;;;;;;;;;;333.30;2329.60;;;;;;4921697;29;19911;-85
2024/02/28 01:48:32;;;;;;;;;;;333.30;2329.60;;;;;;4938561;29;19911;-74
2024/02/28 01:50:58;;;;;;;;;;;333.30;2329.60;;;;;;4938605;29;19938;-73
2024/02/28 01:53:23;;;;;;;;;;;333.30;2329.60;;;;;;4938188;29;19915;-73
2024/02/28 01:55:49;;;;;;;;;;;333.30;2329.60;;;;;;4945393;29;19910;-74
2024/02/28 01:58:15;;;;;;;;;;;333.30;2329.60;;;;;;4943905;29;19962;-75
2024/02/28 02:00:41;;;;;;;;;;;333.30;2329.60;;;;;;4938473;29;19998;-73
2024/02/28 02:03:06;;;;;;;;;;;333.30;2329.60;;;;;;4937882;29;19944;-74
2024/02/28 02:05:32;;;;;;;;;;;333.30;2329.60;;;;;;4938262;29;20005;-75
2024/02/28 02:07:58;;;;;;;;;;;333.20;2329.60;;;;;;4938360;29;20367;-74
2024/02/28 02:10:25;;;;;;;;;;;333.20;2329.60;;;;;;4937991;29;19911;-73
2024/02/28 02:12:50;;;;;;;;;;;333.20;2329.60;;;;;;4921143;29;19954;-73
2024/02/28 02:15:16;;;;;;;;;;;333.20;2329.60;;;;;;4937628;29;19958;-74
2024/02/28 02:17:41;;;;;;;;;;;333.20;2329.60;;;;;;4937794;29;20276;-75
2024/02/28 02:20:09;;;;;;;;;;;333.20;2329.60;;;;;;4937914;29;19911;-78
2024/02/28 02:22:38;;;;;;;;;;;333.20;2329.60;;;;;;4920730;29;19937;-73
2024/02/28 02:25:04;;;;;;;;;;;333.20;2329.60;;;;;;4938025;29;19911;-77
2024/02/28 02:27:29;;;;;;;;;;;333.10;2329.60;;;;;;4937344;29;20327;-74
2024/02/28 02:29:55;;;;;;;;;;;333.10;2329.60;;;;;;4937812;29;19914;-74
2024/02/28 02:32:20;;;;;;;;;;;333.10;2329.60;;;;;;4937588;29;20427;-73
2024/02/28 02:34:46;;;;;;;;;;;333.10;2329.60;;;;;;4937802;29;19985;-74
2024/02/28 02:37:12;;;;;;;;;;;333.10;2329.60;;;;;;4920387;29;20271;-73
2024/02/28 02:39:37;;;;;;;;;;;333.10;2329.60;;;;;;4956933;29;19910;-74
2024/02/28 02:42:03;;;;;;;;;;;333.10;2329.60;;;;;;4956627;29;19919;-74
2024/02/28 02:44:29;;;;;;;;;;;333.10;2329.60;;;;;;4925099;29;19911;-74
2024/02/28 02:46:54;;;;;;;;;;;333.00;2329.60;;;;;;4949931;29;19910;-74
2024/02/28 02:49:20;;;;;;;;;;;333.00;2329.60;;;;;;4936358;29;19914;-74
2024/02/28 02:51:46;;;;;;;;;;;333.00;2329.60;;;;;;4937319;29;19942;-74
2024/02/28 02:54:11;;;;;;;;;;;333.00;2329.60;;;;;;4939044;29;19937;-73
2024/02/28 02:56:37;;;;;;;;;;;333.00;2329.60;;;;;;4944217;29;19911;-75
2024/02/28 02:59:02;;;;;;;;;;;333.00;2329.60;;;;;;4949678;29;20418;-74
2024/02/28 03:01:28;;;;;;;;;;;333.00;2329.60;;;;;;4937211;29;19934;-74
2024/02/28 03:03:54;;;;;;;;;;;333.00;2329.60;;;;;;4937145;29;19917;-74
2024/02/28 03:06:19;;;;;;;;;;;333.00;2329.60;;;;;;4937274;29;20001;-75
2024/02/28 03:08:45;;;;;;;;;;;333.00;2329.60;;;;;;4949996;29;19915;-74
2024/02/28 03:11:11;;;;;;;;;;;333.00;2329.60;;;;;;4937187;29;20373;-74
2024/02/28 03:13:37;;;;;;;;;;;333.00;2329.60;;;;;;4936948;29;19910;-85
2024/02/28 03:16:06;;;;;;;;;;;333.00;2329.60;;;;;;4937053;29;19911;-85
2024/02/28 03:18:32;;;;;;;;;;;333.00;2329.60;;;;;;4937091;29;20275;-76
2024/02/28 03:20:57;;;;;;;;;;;333.00;2329.60;;;;;;4936548;29;19914;-74
2024/02/28 03:23:23;;;;;;;;;;;333.00;2329.60;;;;;;4949479;29;20385;-74
2024/02/28 03:25:49;;;;;;;;;;;333.00;2329.60;;;;;;4936769;29;19911;-74
2024/02/28 03:28:14;;;;;;;;;;;332.90;2329.60;;;;;;4936732;29;19918;-74
2024/02/28 03:30:40;;;;;;;;;;;332.90;2329.60;;;;;;4936864;29;19918;-74
2024/02/28 03:33:05;;;;;;;;;;;332.90;2329.60;;;;;;4949100;29;19911;-73
2024/02/28 03:35:31;;;;;;;;;;;332.90;2329.60;;;;;;4936661;29;19953;-81
2024/02/28 03:37:56;;;;;;;;;;;332.90;2329.60;;;;;;4936505;29;19918;-74
2024/02/28 03:40:22;;;;;;;;;;;332.90;2329.60;;;;;;4936720;29;20338;-85
2024/02/28 03:42:48;;;;;;;;;;;332.90;2329.60;;;;;;4936429;29;19919;-73
2024/02/28 03:45:13;;;;;;;;;;;332.80;2329.60;;;;;;4936728;29;20364;-73
2024/02/28 03:47:39;;;;;;;;;;;332.80;2329.60;;;;;;4936475;29;19917;-75
2024/02/28 03:50:05;;;;;;;;;;;332.80;2329.60;;;;;;4936499;29;19922;-73
2024/02/28 03:52:31;;;;;;;;;;;332.80;2329.60;;;;;;4936369;29;19919;-74
2024/02/28 03:54:57;;;;;;;;;;;332.80;2329.60;;;;;;4936573;29;19965;-74
2024/02/28 03:57:22;;;;;;;;;;;332.80;2329.60;;;;;;4936470;29;19962;-74
2024/02/28 03:59:48;;;;;;;;;;;308.10;2304.00;;;;;;4948792;28;19945;-73
2024/02/28 04:02:14;;;;;;;;;;;308.10;2304.00;;;;;;4936063;29;19938;-85
2024/02/28 04:04:39;;;;;;;;;;;308.10;2304.00;;;;;;4936345;29;19911;-74
2024/02/28 04:07:05;;;;;;;;;;;308.10;2304.00;;;;;;4949117;29;20320;-73
2024/02/28 04:09:31;;;;;;;;;;;308.00;2304.00;;;;;;4936426;29;19910;-84
2024/02/28 04:11:56;;;;;;;;;;;308.00;2304.00;;;;;;4919248;29;19917;-75
2024/02/28 04:14:22;;;;;;;;;;;308.00;2304.00;;;;;;4936349;29;19918;-74
2024/02/28 04:16:50;;;;;;;;;;;308.00;2304.00;;;;;;4936022;29;19915;-74
2024/02/28 04:19:15;;;;;;;;;;;307.90;2304.00;;;;;;4949004;29;19918;-73
2024/02/28 04:21:41;;;;;;;;;;;307.90;2304.00;;;;;;4923210;29;19970;-74
2024/02/28 04:24:07;;;;;;;;;;;307.90;2304.00;;;;;;4936111;29;19922;-73
2024/02/28 04:26:33;;;;;;;;;;;307.90;2304.00;;;;;;4942130;29;19911;-74
2024/02/28 04:28:59;;;;;;;;;;;307.90;2304.00;;;;;;4942769;29;19911;-75
2024/02/28 04:31:24;;;;;;;;;;;307.90;2304.00;;;;;;4936068;29;19954;-74
2024/02/28 04:33:50;;;;;;;;;;;307.90;2304.00;;;;;;4935736;29;20367;-74
2024/02/28 04:36:16;;;;;;;;;;;307.90;2304.00;;;;;;4940724;29;19958;-74
2024/02/28 04:38:41;;;;;;;;;;;307.90;2304.00;;;;;;4943454;29;19918;-75
2024/02/28 04:41:07;;;;;;;;;;;307.90;2304.00;;;;;;4936101;29;19911;-73
2024/02/28 04:43:33;;;;;;;;;;;307.80;2304.00;;;;;;4936050;29;19919;-74
2024/02/28 04:45:59;;;;;;;;;;;307.80;2304.00;;;;;;4935931;29;19911;-74
2024/02/28 04:48:24;;;;;;;;;;;307.80;2304.00;;;;;;4936045;29;19938;-73
2024/02/28 04:50:51;;;;;;;;;;;307.80;2304.00;;;;;;4935768;29;20359;-73
2024/02/28 04:53:16;;;;;;;;;;;307.80;2304.00;;;;;;4947523;29;19919;-73
2024/02/28 04:55:42;;;;;;;;;;;307.80;2304.00;;;;;;4949518;29;19917;-77
2024/02/28 04:58:08;;;;;;;;;;;307.80;2304.00;;;;;;4935999;29;19911;-74
2024/02/28 05:00:33;;;;;;;;;;;307.80;2304.00;;;;;;4940806;29;19953;-75
2024/02/28 05:02:59;;;;;;;;;;;307.80;2304.00;;;;;;4943613;29;20438;-75
2024/02/28 05:05:24;;;;;;;;;;;307.70;2304.00;;;;;;4935840;29;19911;-75
2024/02/28 05:07:51;;;;;;;;;;;307.70;2304.00;;;;;;4935992;29;19914;-74
2024/02/28 05:10:16;;;;;;;;;;;307.70;2304.00;;;;;;4940947;28;20009;-74
2024/02/28 05:12:42;;;;;;;;;;;307.70;2304.00;;;;;;4946401;29;19983;-74
2024/02/28 05:15:08;;;;;;;;;;;307.70;2304.00;;;;;;4938907;29;20427;-74
2024/02/28 05:17:33;;;;;;;;;;;307.70;2304.00;;;;;;4922167;29;19918;-74
2024/02/28 05:19:59;;;;;;;;;;;307.60;2304.00;;;;;;4938938;29;19910;-74
2024/02/28 05:22:25;;;;;;;;;;;307.70;2304.00;;;;;;4938910;29;19930;-73
2024/02/28 05:24:50;;;;;;;;;;;307.60;2304.00;;;;;;4938727;29;20020;-80
2024/02/28 05:27:16;;;;;;;;;;;307.70;2304.00;;;;;;4939144;29;20458;-74
2024/02/28 05:29:42;;;;;;;;;;;307.60;2304.00;;;;;;4921862;29;19911;-74
2024/02/28 05:32:09;;;;;;;;;;;307.60;2304.00;;;;;;4938965;29;19910;-74
2024/02/28 05:34:34;;;;;;;;;;;332.90;2329.60;;;;;;4938681;29;19911;-74
2024/02/28 05:37:00;;;;;;;;;;;307.60;2304.00;;;;;;4939055;29;19939;-74
2024/02/28 05:39:29;;;;;;;;;;;307.60;2304.00;;;;;;4938608;29;19976;-74
2024/02/28 05:41:54;;;;;;;;;;;308.10;2304.00;;;;;;4950256;29;19937;-74
2024/02/28 05:44:20;;;;;;;;;;;307.60;2304.00;;;;;;4957629;29;20351;-73
2024/02/28 05:46:46;;;;;;;;;;;307.60;2304.00;;;;;;4946265;29;20355;-74
2024/02/28 05:49:11;;;;;;;;;;;307.60;2304.00;;;;;;4938329;29;20266;-81
2024/02/28 05:51:37;;;;;;;;;;;307.60;2304.00;;;;;;4938472;29;19915;-75
2024/02/28 05:54:03;;;;;;;;;;;307.60;2304.00;;;;;;4934899;29;19919;-73
2024/02/28 05:56:30;;;;;;;;;;;307.60;2304.00;;;;;;4912633;29;19918;-74
2024/02/28 05:58:55;;;;;;;;;;;307.60;2304.00;;;;;;4938474;29;19915;-75
2024/02/28 06:01:21;;;;;;;;;;;307.60;2304.00;;;;;;4925677;29;19911;-74
2024/02/28 06:03:47;;;;;;;;;;;307.60;2304.00;;;;;;4934135;29;19915;-74
2024/02/28 06:06:13;;;;;;;;;;;307.60;2304.00;;;;;;4928527;29;19918;-74
2024/02/28 06:08:39;;;;;;;;;;;307.60;2304.00;;;;;;4926505;29;19911;-74
2024/02/28 06:11:05;;;;;;;;;;;307.70;2304.00;;;;;;4934349;29;20219;-76
2024/02/28 06:13:31;;;;;;;;;;;307.70;2304.00;;;;;;4927698;29;19998;-75
2024/02/28 06:15:57;;;;;;;;;;;307.80;2304.00;;;;;;4927369;29;19947;-75
2024/02/28 06:18:26;;;;;;;;;;;307.80;2304.00;;;;;;4923425;29;19997;-77
2024/02/28 06:20:54;;;;;;;;;;;307.80;2304.00;;;;;;4927200;29;19963;-73
2024/02/28 06:23:20;;;;;;;;;;;307.90;2304.00;;;;;;4919408;29;19959;-74
2024/02/28 06:25:46;;;;;;;;;;;307.90;2304.00;;;;;;4929840;29;19960;-75
2024/02/28 06:28:11;;;;;;;;;;;308.00;2304.00;;;;;;4933287;29;19911;-76
2024/02/28 06:30:37;;;;;;;;;;;308.00;2304.00;;;;;;4906669;29;19915;-75
2024/02/28 06:33:04;;;;;;;;;;;308.00;2304.00;;;;;;4931027;29;19918;-75
2024/02/28 06:35:30;;;;;;;;;;;308.10;2304.00;;;;;;4924091;29;19911;-75
2024/02/28 06:37:56;;;;;;;;;;;332.80;2329.60;;;;;;4921694;29;19915;-77
2024/02/28 06:40:22;;;;;;;;;;;332.90;2329.60;;;;;;4924147;29;19962;-76
2024/02/28 06:42:47;;;;;;;;;;;332.90;2329.60;;;;;;4914301;29;19978;-75
2024/02/28 06:45:13;;;;;;;;;;;333.10;2329.60;;;;;;4924357;29;20389;-82
2024/02/28 06:47:43;;;;;;;;;;;333.10;2329.60;;;;;;4921332;29;19969;-83
2024/02/28 06:50:09;;;;;;;;;;;333.20;2329.60;;;;;;4921025;29;19918;-77
2024/02/28 06:52:34;;;;;;;;;;;333.30;2329.60;;;;;;4926840;29;19915;-76
2024/02/28 06:55:03;;;;;;;;;;;333.20;2329.60;;;;;;4932467;29;20394;-76
2024/02/28 06:57:29;;;;;;;;;;;333.10;2329.60;;;;;;4931239;29;20001;-84
2024/02/28 06:59:54;;;;;;;;;;;333.20;2329.60;;;;;;4926294;29;20003;-76
2024/02/28 07:02:20;;;;;;;;;;;333.20;2329.60;;;;;;4905108;29;19959;-77
2024/02/28 07:04:45;;;;;;;;;;;333.10;2329.60;;;;;;4912472;29;20363;-75
2024/02/28 07:07:11;;;;;;;;;;;333.20;2329.60;;;;;;4910130;29;19911;-76
2024/02/28 07:09:37;;;;;;;;;;;333.20;2329.60;;;;;;4924742;29;19915;-75
2024/02/28 07:12:03;;;;;;;;;;;333.20;2329.60;;;;;;4930491;29;19915;-77
2024/02/28 07:14:29;;;;;;;;;;;333.50;2329.60;;;;;;4927496;29;19931;-77
2024/02/28 07:16:55;;;;;;;;;;;333.70;2329.60;;;;;;4929169;29;19918;-75
2024/02/28 07:19:21;;;;;;;;;;;333.70;2329.60;;;;;;4930773;29;20287;-75
2024/02/28 07:21:46;;;;;;;;;;;333.60;2329.60;;;;;;4912783;29;20438;-77
2024/02/28 07:24:12;;;;;;;;;;;333.50;2329.60;;;;;;4921209;29;19923;-75
2024/02/28 07:26:39;;;;;;;;;;;333.60;2329.60;;;;;;4943626;29;19910;-78
2024/02/28 07:29:05;;;;;;;;;;;333.70;2329.60;;;;;;4924677;29;19925;-76
2024/02/28 07:31:30;;;;;;;;;;;358.40;2329.60;;;;;;4928632;29;19915;-73
2024/02/28 07:33:56;;;;;;;;;;;358.70;2329.60;;;;;;4908794;29;19981;-75
2024/02/28 07:36:22;;;;;;;;;;;358.70;2329.60;;;;;;4931173;29;20426;-81
2024/02/28 07:38:48;;;;;;;;;;;358.70;2329.60;;;;;;4926904;29;19919;-79
2024/02/28 07:41:14;;;;;;;;;;;358.70;2329.60;;;;;;4930273;29;19919;-79
2024/02/28 07:43:43;;;;;;;;;;;358.60;2329.60;;;;;;4929488;29;19922;-78
2024/02/28 07:46:10;;;;;;;;;;;358.80;2329.60;;;;;;4916022;29;19950;-79
2024/02/28 07:48:36;;;;;;;;;;;359.10;2329.60;;;;;;4920538;29;19922;-80
2024/02/28 07:51:04;;;;;;;;;;;384.00;2329.60;;;;;;4905915;29;20291;-79
2024/02/28 07:53:29;;;;;;;;;;;384.30;2329.60;;;;;;4904681;29;19922;-79
2024/02/28 07:55:56;;;;;;;;;;;384.50;2329.60;;;;;;4906698;29;19915;-78
2024/02/28 07:58:21;;;;;;;;;;;384.60;2329.60;;;;;;4918141;29;19919;-81
2024/02/28 08:00:47;;;;;;;;;;;384.60;2329.60;;;;;;4914638;29;19959;-80
2024/02/28 08:03:12;;;;;;;;;;;384.70;2329.60;;;;;;4905484;29;19919;-77
2024/02/28 08:05:43;;;;;;;;;;;384.70;2329.60;;;;;;4908514;29;19911;-79
2024/02/28 08:08:09;;;;;;;;;;;384.70;2329.60;;;;;;4909989;29;19911;-78
2024/02/28 08:10:35;;;;;;;;;;;384.90;2329.60;;;;;;4912381;29;19914;-77
2024/02/28 08:13:01;;;;;;;;;;;409.60;2355.20;;;;;;4931621;29;19919;-78
2024/02/28 08:15:26;;;;;;;;;;;409.70;2355.20;;;;;;4928221;29;20006;-76
2024/02/28 08:17:53;;;;;;;;;;;409.70;2355.20;;;;;;4925780;29;20009;-77
2024/02/28 08:20:19;;;;;;;;;;;409.90;2355.20;;;;;;4923989;29;19915;-77
2024/02/28 08:22:44;;;;;;;;;;;409.90;2355.20;;;;;;4917237;29;19934;-79
2024/02/28 08:25:11;;;;;;;;;;;409.90;2355.20;;;;;;4910921;29;20379;-77
2024/02/28 08:27:37;;;;;;;;;;;410.10;2355.20;;;;;;4909254;29;19918;-75
2024/02/28 08:30:03;;;;;;;;;;;410.10;2355.20;;;;;;4924284;29;19911;-78
2024/02/28 08:32:28;;;;;;;;;;;410.10;2355.20;;;;;;4907211;29;20328;-78
2024/02/28 08:34:54;;;;;;;;;;;410.20;2355.20;;;;;;4905842;29;20367;-78
2024/02/28 08:37:20;;;;;;;;;;;410.20;2329.60;;;;;;4920138;29;19946;-78
2024/02/28 08:39:46;;;;;;;;;;;410.10;2304.00;;;;;;4902657;29;20014;-79
2024/02/28 08:42:12;;;;;;;;;;;410.20;2304.00;;;;;;4912447;29;19919;-78
2024/02/28 08:44:37;;;;;;;;;;;410.30;2355.20;;;;;;4921989;29;20005;-80
2024/02/28 08:47:03;;;;;;;;;;;410.30;2355.20;;;;;;4909950;29;19955;-81
2024/02/28 08:49:30;;;;;;;;;;;410.40;2304.00;;;;;;4928489;29;19967;-79
2024/02/28 08:51:56;;;;;;;;;;;410.20;2355.20;;;;;;4928815;29;19923;-79
2024/02/28 08:54:22;;;;;;;;;;;410.20;2355.20;;;;;;4937170;29;19922;-80
2024/02/28 08:56:48;;;;;;;;;;;410.50;2355.20;;;;;;4931226;29;19911;-83
2024/02/28 08:59:14;;;;;;;;;;;435.20;2252.80;;;;;;4935600;29;19914;-78
2024/02/28 09:01:41;;;;;;;;;;;435.40;2227.20;;;;;;4929011;29;19978;-79
2024/02/28 09:04:07;;;;;;;;;;;435.50;2227.20;;;;;;4924174;29;19917;-79
2024/02/28 09:06:32;;;;;;;;;;;435.50;2176.00;;;;;;4912476;29;20394;-77
2024/02/28 09:08:58;;;;;;;;;;;435.60;2176.00;;;;;;4938086;29;19938;-78
2024/02/28 09:11:24;;;;;;;;;;;435.70;2201.60;;;;;;4915849;29;19911;-78
2024/02/28 09:13:50;;;;;;;;;;;435.50;2150.40;;;;;;4912235;29;19910;-78
2024/02/28 09:16:16;;;;;;;;;;;435.60;2150.40;;;;;;4912811;29;20332;-78
2024/02/28 09:18:42;;;;;;;;;;;435.50;2176.00;;;;;;4932677;29;20382;-78
2024/02/28 09:21:08;;;;;;;;;;;435.40;2227.20;;;;;;4907526;29;19920;-77
2024/02/28 09:23:34;;;;;;;;;;;435.50;2227.20;;;;;;4910709;29;20079;-78
2024/02/28 09:26:03;;;;;;;;;;;435.50;2252.80;;;;;;4916501;29;20009;-76
2024/02/28 09:28:29;;;;;;;;;;;435.60;2176.00;;;;;;4901340;29;20394;-78
2024/02/28 09:30:54;;;;;;;;;;;435.50;2176.00;;;;;;4889184;29;19912;-78
2024/02/28 09:33:20;;;;;;;;;;;435.40;2176.00;;;;;;4902693;29;19911;-77
2024/02/28 09:35:45;;;;;;;;;;;435.40;2176.00;;;;;;4893789;29;19922;-76
2024/02/28 09:38:11;;;;;;;;;;;435.60;2150.40;;;;;;4898562;29;19915;-77
2024/02/28 09:40:37;;;;;;;;;;;435.80;2124.80;;;;;;4903490;29;19918;-79
2024/02/28 09:43:03;;;;;;;;;;;461.00;2099.20;;;;;;4915067;29;19920;-79
2024/02/28 09:45:30;;;;;;;;;;;461.00;2048.00;;;;;;4897776;29;19939;-78
2024/02/28 09:48:00;;;;;;;;;;;461.10;2022.40;;;;;;4910192;29;20006;-78
2024/02/28 09:50:26;;;;;;;;;;;460.90;2048.00;;;;;;4909926;29;19927;-76
2024/02/28 09:52:52;;;;;;;;;;;461.10;2048.00;;;;;;4923932;29;19922;-78
2024/02/28 09:55:18;;;;;;;;;;;461.10;1996.80;;;;;;4907824;29;20006;-76
2024/02/28 09:57:46;;;;;;;;;;;461.40;1971.20;;;;;;4910163;29;19912;-76
2024/02/28 10:00:13;;;;;;;;;;;461.40;1971.20;;;;;;4911872;29;19912;-76
2024/02/28 10:02:40;;;;;;;;;;;461.40;1971.20;;;;;;4904546;29;20383;-75
2024/02/28 10:05:06;;;;;;;;;;;461.40;1996.80;;;;;;4911015;29;19916;-78
2024/02/28 10:07:32;;;;;;;;;;;461.10;2022.40;;;;;;4896570;29;19966;-78
2024/02/28 10:09:57;;;;;;;;;;;460.90;2073.60;;;;;;4907502;29;19915;-83
2024/02/28 10:12:23;;;;;;;;;;;460.90;2073.60;;;;;;4908945;29;19915;-78
2024/02/28 10:14:49;;;;;;;;;;;460.80;2073.60;;;;;;4893056;29;19911;-78
2024/02/28 10:17:15;;;;;;;;;;;460.90;2048.00;;;;;;4912923;29;19918;-77
2024/02/28 10:19:41;;;;;;;;;;;460.90;2073.60;;;;;;4908309;29;20919;-78
2024/02/28 10:22:06;;;;;;;;;;;460.90;2048.00;;;;;;4907266;29;19930;-79
2024/02/28 10:24:33;;;;;;;;;;;460.90;2073.60;;;;;;4930109;29;20431;-78
2024/02/28 10:27:00;;;;;;;;;;;461.00;2124.80;;;;;;4937146;29;19911;-77
2024/02/28 10:29:28;;;;;;;;;;;460.90;2099.20;;;;;;4930692;29;19923;-77
2024/02/28 10:31:56;;;;;;;;;;;461.00;2048.00;;;;;;4905245;29;19911;-77
2024/02/28 10:34:22;;;;;;;;;;;461.10;2073.60;;;;;;4911390;29;20419;-78
2024/02/28 10:36:49;;;;;;;;;;;461.30;2099.20;;;;;;4921170;29;19914;-78
2024/02/28 10:39:14;;;;;;;;;;;461.50;2048.00;;;;;;4921048;29;19921;-77
2024/02/28 10:41:41;;;;;;;;;;;461.60;2048.00;;;;;;4927987;29;19998;-76
2024/02/28 10:44:07;;;;;;;;;;;461.70;2048.00;;;;;;4928540;29;20047;-77
2024/02/28 10:46:32;;;;;;;;;;;461.70;2022.40;;;;;;4932154;29;20009;-78
2024/02/28 10:48:58;;;;;;;;;;;461.60;2022.40;;;;;;4929235;29;20430;-77
2024/02/28 10:51:27;;;;;;;;;;;461.60;1996.80;;;;;;4924568;29;19915;-77
2024/02/28 10:54:14;;;;;;;;;;;461.60;1945.60;;;;;;4931191;29;19915;-77
2024/02/28 10:56:40;;;;;;;;;;;461.50;1996.80;;;;;;4928497;29;20458;-77
2024/02/28 10:59:07;;;;;;;;;;;461.50;1996.80;;;;;;4934470;29;19918;-77
2024/02/28 11:01:34;;;;;;;;;;;461.30;2048.00;;;;;;4925437;29;19979;-76
2024/02/28 11:04:00;;;;;;;;;;;461.20;2022.40;;;;;;4920857;29;19970;-77
2024/02/28 11:06:27;;;;;;;;;;;461.30;1996.80;;;;;;4926604;29;20188;-76
2024/02/28 11:08:54;;;;;;;;;;;461.30;2048.00;;;;;;4923024;29;19950;-77
2024/02/28 11:11:22;;;;;;;;;;;461.40;2048.00;;;;;;4928323;29;19911;-76
2024/02/28 11:13:55;;;;;;;;;;;461.40;2048.00;;;;;;4927264;29;19967;-79
2024/02/28 11:16:27;;;;;;;;;;;461.30;2048.00;;;;;;4924618;29;19911;-80
2024/02/28 11:18:53;;;;;;;;;;;461.40;2073.60;;;;;;4931030;29;19917;-78
2024/02/28 11:21:19;;;;;;;;;;;461.40;2073.60;;;;;;4917382;29;20001;-76
2024/02/28 11:23:48;;;;;;;;;;;461.40;2022.40;;;;;;4917656;29;20093;-77
2024/02/28 11:26:13;;;;;;;;;;;461.40;2022.40;;;;;;4931477;29;19917;-79
2024/02/28 11:28:39;;;;;;;;;;;461.50;2022.40;;;;;;4901779;29;20343;-80
2024/02/28 11:31:05;;;;;;;;;;;461.50;1996.80;;;;;;4926214;29;19911;-76
2024/02/28 11:33:33;;;;;;;;;;;486.60;1996.80;;;;;;4921854;29;19934;-76
2024/02/28 11:35:58;;;;;;;;;;;486.60;1971.20;;;;;;4929075;29;19918;-76
2024/02/28 11:38:25;;;;;;;;;;;486.70;1920.00;;;;;;4931912;29;20283;-77
2024/02/28 11:40:50;;;;;;;;;;;487.10;1868.80;;;;;;4926229;29;20374;-78
2024/02/28 11:43:17;;;;;;;;;;;487.10;1843.20;;;;;;4911961;29;19919;-77
2024/02/28 11:45:43;;;;;;;;;;;512.30;1843.20;;;;;;4924955;29;19934;-77
2024/02/28 11:48:09;;;;;;;;;;;512.50;1817.60;;;;;;4926558;29;20279;-79
2024/02/28 11:50:37;;;;;;;;;;;512.50;1792.00;;;;;;4918763;29;19912;-78
2024/02/28 11:53:04;;;;;;;;;;;512.50;1766.40;;;;;;4924987;29;19962;-77
2024/02/28 11:55:30;;;;;;;;;;;512.60;1766.40;;;;;;4910388;29;19918;-79
2024/02/28 11:57:56;;;;;;;;;;;512.60;1740.80;;;;;;4903522;29;19911;-77
2024/02/28 12:00:21;;;;;;;;;;;512.90;1740.80;;;;;;4906177;29;19911;-77
2024/02/28 12:02:47;;;;;;;;;;;537.70;1740.80;;;;;;4903145;29;20287;-79
2024/02/28 12:05:13;;;;;;;;;;;538.00;1715.20;;;;;;4910325;29;19918;-77
2024/02/28 12:07:38;;;;;;;;;;;538.00;1715.20;;;;;;4921049;29;19942;-81
2024/02/28 12:10:04;;;;;;;;;;;537.80;1715.20;;;;;;4910112;29;19938;-80
2024/02/28 12:12:31;;;;;;;;;;;537.90;1664.00;;;;;;4909184;29;19997;-78
2024/02/28 12:15:00;;;;;;;;;;;538.50;1689.60;;;;;;4918504;29;19922;-79
2024/02/28 12:17:26;;;;;;;;;;;538.40;1664.00;;;;;;4919177;29;19954;-78
2024/02/28 12:19:52;;;;;;;;;;;538.20;1689.60;;;;;;4904247;29;19915;-79
2024/02/28 12:22:17;;;;;;;;;;;538.20;1638.40;;;;;;4913105;29;19977;-78
2024/02/28 12:24:43;;;;;;;;;;;538.20;1664.00;;;;;;4916718;29;19978;-80
2024/02/28 12:27:09;;;;;;;;;;;538.30;1638.40;;;;;;4930871;29;19918;-76
2024/02/28 12:29:34;;;;;;;;;;;538.30;1638.40;;;;;;4932015;29;19987;-77
2024/02/28 12:32:00;;;;;;;;;;;538.50;1638.40;;;;;;4925085;29;20324;-77
2024/02/28 12:34:26;;;;;;;;;;;538.40;1638.40;;;;;;4933425;29;19942;-77
2024/02/28 12:36:52;;;;;;;;;;;538.50;1638.40;;;;;;4907283;29;19998;-77
2024/02/28 12:39:17;;;;;;;;;;;538.50;1612.80;;;;;;4923706;29;20046;-81
2024/02/28 12:41:43;;;;;;;;;;;538.30;1638.40;;;;;;4912557;29;19998;-77
2024/02/28 12:44:10;;;;;;;;;;;538.50;1612.80;;;;;;4909778;29;19921;-77
2024/02/28 12:46:36;;;;;;;;;;;538.50;1638.40;;;;;;4923449;29;19922;-77
2024/02/28 12:49:01;;;;;;;;;;;563.30;1638.40;;;;;;4913414;29;19911;-78
2024/02/28 12:51:40;;;;;;;;;;;563.50;1612.80;;;;;;4913328;29;19918;-78
2024/02/28 12:54:07;;;;;;;;;;;538.50;1612.80;;;;;;4908783;29;19974;-78
2024/02/28 12:56:33;;;;;;;;;;;563.30;1638.40;;;;;;4907734;29;19911;-77
2024/02/28 12:58:59;;;;;;;;;;;563.50;1612.80;;;;;;4917855;29;19918;-77
2024/02/28 13:01:25;;;;;;;;;;;563.40;1612.80;;;;;;4929795;29;19912;-82
2024/02/28 13:03:51;;;;;;;;;;;563.50;1612.80;;;;;;4924939;29;19969;-79
2024/02/28 13:06:16;;;;;;;;;;;563.40;1612.80;;;;;;4914527;29;19946;-78
2024/02/28 13:08:42;;;;;;;;;;;563.40;1638.40;;;;;;4929201;29;19939;-79
2024/02/28 13:11:07;;;;;;;;;;;563.30;1664.00;;;;;;4920471;29;19961;-78
2024/02/28 13:13:33;;;;;;;;;;;563.30;1587.20;;;;;;4914417;29;19967;-78
2024/02/28 13:16:02;;;;;;;;;;;563.40;1664.00;;;;;;4909062;29;20343;-78
2024/02/28 13:18:28;;;;;;;;;;;563.30;1638.40;;;;;;4929298;29;19911;-78
2024/02/28 13:20:53;;;;;;;;;;;563.20;1638.40;;;;;;4915958;29;19933;-78
2024/02/28 13:23:19;;;;;;;;;;;563.40;1587.20;;;;;;4908807;29;19931;-79
2024/02/28 13:25:45;;;;;;;;;;;563.20;1612.80;;;;;;4910459;29;20395;-78
2024/02/28 13:28:10;;;;;;;;;;;563.20;1612.80;;;;;;4917813;29;19912;-78
2024/02/28 13:30:36;;;;;;;;;;;563.20;1612.80;;;;;;4908392;29;19915;-79
2024/02/28 13:33:05;;;;;;;;;;;538.50;1587.20;;;;;;4911395;29;19911;-78
2024/02/28 13:35:30;;;;;;;;;;;538.40;1587.20;;;;;;4917634;29;20018;-78